Home > Products > Valid Products > TAF

000
FTUS45 KBOI 312321
TAFBNO
TAF
KBNO 312321Z 0100/0124 28010KT P6SM VCSH OVC080
      TEMPO 0103/0107 -RA SCT020 OVC040
     FM010700 30011KT P6SM SCT040 OVC060
     FM011700 30017KT P6SM -RA BKN020 OVC040=



000
FTUS45 KBOI 312321
TAFBKE
TAF
KBKE 312321Z 0100/0124 29008KT P6SM SCT070 OVC100
     FM010300 31015KT P6SM VCSH BKN040 OVC060
     FM012100 31018KT P6SM -SHRA BKN020 OVC050=



000
FTUS45 KBOI 312321
TAFJER
TAF
KJER 312321Z 0100/0124 05007KT P6SM BKN150
     FM011600 15010KT P6SM SCT060 BKN100
     FM012200 23018G23KT P6SM VCSH SCT060 BKN100=



000
FTUS45 KBOI 312321
TAFTWF
TAF
KTWF 312321Z 0100/0124 03008KT P6SM OVC150
     FM010400 15012KT P6SM BKN150
     FM011600 18018KT P6SM FEW050 OVC120
     FM012200 23018G23KT P6SM VCSH SCT050 OVC100=



000
FTUS45 KBOI 312321
TAFBOI
TAF
KBOI 312321Z 0100/0124 VRB06KT P6SM SCT150
     FM010500 13008KT P6SM SCT015
     FM011800 18012KT P6SM VCSH BKN060 OVC100
     FM012300 31012KT P6SM -SHRA BKN040 OVC060=



000
FTUS45 KBOI 312321
TAFMYL
TAF
KMYL 312321Z 0100/0124 18010KT P6SM BKN120
     FM010100 VRB03KT P6SM BKN150
     FM011400 22007KT P6SM VCSH BKN050 OVC070
     FM012200 31010KT P6SM -RA BKN020 OVC040=



000
FTUS45 KBOI 312116 AAA
TAFMYL
TAF AMD
KMYL 312116Z 3121/0118 18010KT P6SM BKN120
     FM010100 VRB03KT P6SM BKN150
     FM011400 22007KT P6SM VCSH BKN050 OVC070=



000
FTUS45 KBOI 312108 AAA
TAFBNO
TAF AMD
KBNO 312108Z 3121/0118 22012KT P6SM BKN080 OVC100
     FM010200 28010KT P6SM VCSH OVC080
      TEMPO 0104/0108 -RA SCT020 OVC040
     FM010800 30009KT P6SM SCT040 OVC060=



000
FTUS45 KBOI 312108 AAA
TAFBNO
TAF AMD
KBNO 312108Z 3121/0118 22012KT P6SM BKN080 OVC100
     FM010200 28010KT P6SM VCSH OVC080
      TEMPO 0104/0108 -RA SCT020 OVC040
     FM010800 30009KT P6SM SCT040 OVC060=



000
FTUS45 KBOI 312059 AAA
TAFBKE
TAF AMD
KBKE 312059Z 3121/0118 16012KT P6SM BKN100 BKN150
     FM010100 29008KT P6SM SCT070 OVC100
     FM011600 31015KT P6SM VCSH BKN040 OVC060=



000
FTUS45 KBOI 312055 AAA
TAFJER
TAF AMD
KJER 312055Z 3121/0118 16008KT P6SM OVC150
     FM010000 08007KT P6SM BKN150=



000
FTUS45 KBOI 312051 AAC
TAFBOI
TAF AMD
KBOI 312051Z 3121/0118 10008KT P6SM BKN110 BKN150
     FM312200 30006KT P6SM SCT150
     FM011400 31010KT P6SM VCSH BKN100 OVC120=



000
FTUS45 KBOI 312047 AAB
TAFTWF
TAF AMD
KTWF 312047Z 3121/0118 17013KT P6SM OVC150
     FM010400 15012KT P6SM BKN150
     FM011400 15018KT P6SM OVC120=



000
FTUS45 KBOI 311856 RRA
TAFBKE
TAF
KBKE 311856Z 3119/0118 16013G20KT P6SM SCT100 BKN150
     FM312000 13007KT P6SM OVC100
     FM010100 29010KT P6SM OVC060
     FM011600 31015KT P6SM VCSH BKN040 OVC060=



000
FTUS45 KBOI 311856 RRA
TAFJER
TAF
KJER 311856Z 3119/0118 04008KT P6SM BKN150=



000
FTUS45 KBOI 311856 RRA
TAFBOI
TAF
KBOI 311856Z 3119/0118 31005KT P6SM BKN110 OVC150
     FM312300 30006KT P6SM SCT150
     FM011400 31010KT P6SM VCSH BKN100 OVC120=



000
FTUS45 KBOI 311856 RRA
TAFTWF
TAF
KTWF 311856Z 3119/0118 17013G20KT P6SM OVC150
     FM010400 15012KT P6SM BKN150
     FM011400 15018KT P6SM OVC120=



000
FTUS45 KBOI 311856 RRA
TAFBNO
TAF
KBNO 311856Z 3119/0118 19015KT P6SM BKN080 OVC100
     FM010100 20010KT P6SM VCSH OVC080
     FM010600 30005KT P6SM -RA SCT020 OVC040=



000
FTUS45 KBOI 311856 RRA
TAFMYL
TAF
KMYL 311856Z 3119/0118 18012KT P6SM BKN120
     FM010100 VRB03KT P6SM BKN080
     FM011400 22007KT P6SM -RA BKN035 OVC050=



000
FTUS45 KBOI 311259 AAA
TAFTWF
TAF AMD
KTWF 311259Z 3113/0112 17013KT P6SM SCT200
     FM311500 15008KT P6SM SCT200
     FM010400 15012KT P6SM BKN150=



000
FTUS45 KBOI 311134
TAFMYL
TAF
KMYL 311134Z 3112/0112 VRB03KT P6SM BKN200
     FM312100 18008KT P6SM SCT080 BKN120
     FM010100 VRB03KT P6SM BKN080
     FM011000 33005KT P6SM -SHRA BKN050 OVC080=



000
FTUS45 KBOI 311134
TAFBNO
TAF
KBNO 311134Z 3112/0112 23005KT P6SM FEW120 BKN200
     FM312100 20010KT P6SM -SHRA SCT050 BKN100
     FM010300 30005KT P6SM -RA SCT020 OVC040=



000
FTUS45 KBOI 311134
TAFTWF
TAF
KTWF 311134Z 3112/0112 VRB03KT P6SM SCT200
     FM311500 15008KT P6SM SCT200
     FM010400 15012KT P6SM BKN150=



000
FTUS45 KBOI 311134
TAFJER
TAF
KJER 311134Z 3112/0112 04012KT P6SM SCT200
     FM010600 07010KT P6SM BKN150=



000
FTUS45 KBOI 311134
TAFBOI
TAF
KBOI 311134Z 3112/0112 VRB03KT P6SM BKN150
     FM311900 33005KT P6SM BKN120
     FM010600 27010KT P6SM SCT060 BKN100=



000
FTUS45 KBOI 311134
TAFBKE
TAF
KBKE 311134Z 3112/0112 VRB03KT P6SM BKN150
     FM312000 13007KT P6SM OVC100
     FM010200 29005KT P6SM -SHRA SCT050 BKN100
     FM010800 31010KT P6SM -RA BKN040 OVC080=



000
FTUS45 KBOI 310520
TAFTWF
TAF
KTWF 310520Z 3106/0106 13010KT P6SM SCT200
     FM311800 06008KT P6SM SCT150=



000
FTUS45 KBOI 310520
TAFJER
TAF
KJER 310520Z 3106/0106 05015KT P6SM SCT150=



000
FTUS45 KBOI 310520
TAFBOI
TAF
KBOI 310520Z 3106/0106 14010KT P6SM BKN150=



000
FTUS45 KBOI 310520
TAFBKE
TAF
KBKE 310520Z 3106/0106 11008KT P6SM BKN150
     FM010300 32010KT P6SM VCSH OVC060=



000
FTUS45 KBOI 310520
TAFMYL
TAF
KMYL 310520Z 3106/0106 VRB05KT P6SM BKN200=



000
FTUS45 KBOI 310520
TAFBNO
TAF
KBNO 310520Z 3106/0106 VRB06KT P6SM BKN100
     FM010300 27010KT P6SM -SHRA SCT020 OVC040=



000
FTUS45 KBOI 302320
TAFBOI
TAF
KBOI 302320Z 3100/3124 18010KT P6SM BKN200
     FM310200 14012KT P6SM BKN100=



000
FTUS45 KBOI 302320
TAFTWF
TAF
KTWF 302320Z 3100/3124 06008KT P6SM SCT200
     FM310200 13010KT P6SM SCT200=



000
FTUS45 KBOI 302320
TAFJER
TAF
KJER 302320Z 3100/3124 05015KT P6SM SCT200
     FM312100 25010KT P6SM BKN120=



000
FTUS45 KBOI 302320
TAFBKE
TAF
KBKE 302320Z 3100/3124 11008KT P6SM BKN200=



000
FTUS45 KBOI 302320
TAFMYL
TAF
KMYL 302320Z 3100/3124 VRB05KT P6SM BKN200=



000
FTUS45 KBOI 302320
TAFBNO
TAF
KBNO 302320Z 3100/3124 06007KT P6SM BKN200
     FM310500 VRB06KT P6SM BKN100
     FM311500 16007KT P6SM OVC050=



000
FTUS45 KBOI 302049 AAA
TAFJER
TAF AMD
KJER 302049Z 3021/3118 05015KT P6SM SCT200
     FM311500 05011KT P6SM SCT200=



000
FTUS45 KBOI 302048 AAA
TAFBOI
TAF AMD
KBOI 302048Z 3021/3118 14007KT P6SM BKN200
     FM310200 14013KT P6SM BKN200
     FM311000 13011KT P6SM BKN100=



000
FTUS45 KBOI 301726 CCA
TAFBOI
TAF COR
KBOI 301726Z 3018/3118 14011KT P6SM BKN200
     FM302000 14014G20KT P6SM BKN200
     FM310200 14013KT P6SM BKN200
     FM311000 13011KT P6SM BKN100=



000
FTUS45 KBOI 301726 CCA
TAFBOI
TAF COR
KBOI 301726Z 3018/3118 14011KT P6SM BKN200
     FM302000 14014G20KT P6SM BKN200
     FM310200 14013KT P6SM BKN200
     FM311000 13011KT P6SM BKN100=



000
FTUS45 KBOI 301726
TAFBNO
TAF
KBNO 301726Z 3018/3118 07007KT P6SM BKN200
     FM310500 VRB05KT P6SM BKN100
     FM311500 16007KT P6SM OVC050=



000
FTUS45 KBOI 301726
TAFBKE
TAF
KBKE 301726Z 3018/3118 10006KT P6SM BKN100 BKN200
     FM302000 11015G20KT P6SM SCT100 BKN200
     FM310100 11008KT P6SM BKN200=



000
FTUS45 KBOI 301726
TAFTWF
TAF
KTWF 301726Z 3018/3118 09008KT P6SM SCT200
     FM310200 13010KT P6SM SCT200=



000
FTUS45 KBOI 301726
TAFJER
TAF
KJER 301726Z 3018/3118 05015G24KT P6SM SCT200
     FM310200 05015KT P6SM SCT200
     FM311500 05011KT P6SM SCT200=



000
FTUS45 KBOI 301726
TAFBOI
TAF
KBOI 301726Z 3018/3118 14012KT P6SM BKN200
     FM302000 14014G20KT P6SM BKN200
     FM310200 14013KT P6SM BKN200
     FM311000 13011KT P6SM BKN100=



000
FTUS45 KBOI 301726
TAFMYL
TAF
KMYL 301726Z 3018/3118 VRB05KT P6SM BKN200=



000
FTUS45 KBOI 301120
TAFJER
TAF
KJER 301120Z 3012/3112 05015KT P6SM SCT250=



000
FTUS45 KBOI 301120
TAFBKE
TAF
KBKE 301120Z 3012/3112 12006KT P6SM BKN100
     FM301800 11015G20KT P6SM SCT100 BKN200
     FM310100 12007KT P6SM BKN200=



000
FTUS45 KBOI 301120
TAFBOI
TAF
KBOI 301120Z 3012/3112 14012KT P6SM SCT110 BKN250
     FM301800 14014G20KT P6SM SCT250
     FM310200 14012KT P6SM SCT250=



000
FTUS45 KBOI 301120
TAFTWF
TAF
KTWF 301120Z 3012/3112 10008KT P6SM SCT250=



000
FTUS45 KBOI 301120
TAFBNO
TAF
KBNO 301120Z 3012/3112 VRB05KT P6SM BKN200=



000
FTUS45 KBOI 301120
TAFMYL
TAF
KMYL 301120Z 3012/3112 VRB03KT P6SM BKN090
     FM301800 VRB04KT P6SM BKN200=



000
FTUS45 KBOI 300520
TAFMYL
TAF
KMYL 300520Z 3006/3106 VRB06KT P6SM BKN120=



000
FTUS45 KBOI 300520
TAFBOI
TAF
KBOI 300520Z 3006/3106 VRB04KT P6SM BKN100
     FM301800 14011KT P6SM SCT150=



000
FTUS45 KBOI 300520
TAFBNO
TAF
KBNO 300520Z 3006/3106 VRB05KT P6SM BKN080 OVC150=



000
FTUS45 KBOI 300520
TAFTWF
TAF
KTWF 300520Z 3006/3106 18008KT P6SM SCT150
     FM301300 10007KT P6SM FEW250=



000
FTUS45 KBOI 300520
TAFJER
TAF
KJER 300520Z 3006/3106 VRB06KT P6SM BKN100
     FM301200 05015G20KT P6SM FEW250=



000
FTUS45 KBOI 300520
TAFBKE
TAF
KBKE 300520Z 3006/3106 VRB06KT P6SM BKN100
     FM301800 11015G20KT P6SM BKN150
     FM310300 11010KT P6SM SCT150=



000
FTUS45 KBOI 292323
TAFMYL
TAF
KMYL 292323Z 3000/3024 VRB06KT P6SM SCT030 BKN150=



000
FTUS45 KBOI 292323
TAFTWF
TAF
KTWF 292323Z 3000/3024 27007KT P6SM SCT150
     FM300300 18008KT P6SM SCT150
     FM301300 11007KT P6SM FEW250=



000
FTUS45 KBOI 292323
TAFBKE
TAF
KBKE 292323Z 3000/3024 VRB06KT P6SM BKN200
     FM301800 11015KT P6SM BKN150=



000
FTUS45 KBOI 292323
TAFJER
TAF
KJER 292323Z 3000/3024 25007KT P6SM SCT150
     FM300300 05010KT P6SM SCT150
     FM301200 05015G20KT P6SM FEW250=



000
FTUS45 KBOI 292323
TAFBOI
TAF
KBOI 292323Z 3000/3024 31005KT P6SM BKN150
     FM300200 14011KT P6SM SCT150=



000
FTUS45 KBOI 292323
TAFBNO
TAF
KBNO 292323Z 3000/3024 VRB05KT P6SM BKN080 OVC150=



000
FTUS45 KBOI 291738
TAFTWF
TAF
KTWF 291738Z 2918/3018 27007KT P6SM SCT070 BKN200
     FM300300 18008KT P6SM BKN150
     FM301300 12007KT P6SM FEW250=



000
FTUS45 KBOI 291738
TAFJER
TAF
KJER 291738Z 2918/3018 VRB05KT P6SM BKN070
     FM291900 25007KT P6SM SCT070
     FM300200 06009KT P6SM BKN200
     FM301500 05015KT P6SM FEW250=



000
FTUS45 KBOI 291738
TAFMYL
TAF
KMYL 291738Z 2918/3018 17005KT P6SM SCT030 BKN150
     FM300100 VRB04KT P6SM SCT070 BKN150=



000
FTUS45 KBOI 291738
TAFBKE
TAF
KBKE 291738Z 2918/3018 12006KT P6SM SCT100 BKN200=



000
FTUS45 KBOI 291738
TAFBOI
TAF
KBOI 291738Z 2918/3018 14006KT P6SM SCT060 BKN100
     FM291900 31005KT P6SM SCT120 BKN200
     FM300200 14007KT P6SM SCT150 BKN250=



000
FTUS45 KBOI 291738
TAFBNO
TAF
KBNO 291738Z 2918/3018 VRB05KT P6SM BKN080 OVC150=



000
FTUS45 KBOI 291445 AAA
TAFMYL
TAF AMD
KMYL 291445Z 2915/3012 VRB03KT P6SM VCSH BKN030 BKN050
     FM291800 18005KT P6SM FEW070 BKN200
     FM300200 VRB03KT P6SM SCT100 BKN200=



000
FTUS45 KBOI 291312 AAA
TAFBNO
TAF AMD
KBNO 291312Z 2913/3012 VRB03KT 3SM BR SCT060 SCT200
     FM291500 VRB04KT P6SM SCT060 SCT200
     FM292100 VRB05KT P6SM BKN080 OVC120=



000
FTUS45 KBOI 291120
TAFJER
TAF
KJER 291120Z 2912/3012 06008KT P6SM BKN070
     FM291900 25007KT P6SM SCT070
     FM300200 06009KT P6SM BKN200=



000
FTUS45 KBOI 291120
TAFMYL
TAF
KMYL 291120Z 2912/3012 VRB03KT P6SM VCSH SCT035 BKN050
     FM291800 18005KT P6SM FEW070 BKN200
     FM300200 VRB03KT P6SM SCT100 BKN200=



000
FTUS45 KBOI 291120
TAFBKE
TAF
KBKE 291120Z 2912/3012 VRB04KT P6SM SCT060
     FM291900 11006KT P6SM SCT100 BKN200=



000
FTUS45 KBOI 291120
TAFBNO
TAF
KBNO 291120Z 2912/3012 VRB04KT P6SM SCT060 SCT200
     FM292100 VRB05KT P6SM BKN080 OVC120=



000
FTUS45 KBOI 291120
TAFBOI
TAF
KBOI 291120Z 2912/3012 14006KT P6SM SCT060 BKN100
     FM291900 31005KT P6SM BKN200
     FM300200 14006KT P6SM SCT120 BKN200=



000
FTUS45 KBOI 291120
TAFTWF
TAF
KTWF 291120Z 2912/3012 18008KT P6SM BKN070
     FM291800 28007KT P6SM SCT070
     FM300300 18008KT P6SM BKN200=



000
FTUS45 KBOI 290520
TAFBKE
TAF
KBKE 290520Z 2906/3006 09008KT P6SM VCSH BKN060
     FM291900 10008KT P6SM BKN150=



000
FTUS45 KBOI 290520
TAFJER
TAF
KJER 290520Z 2906/3006 08006KT P6SM SCT150
     FM291900 25007KT P6SM SCT150
     FM300200 08009KT P6SM SCT250=



000
FTUS45 KBOI 290520
TAFBOI
TAF
KBOI 290520Z 2906/3006 14010KT P6SM BKN100
      TEMPO 2906/2910 14015G24KT -SHRA BKN050
     FM291800 31005KT P6SM SCT250
     FM300200 14006KT P6SM BKN250=



000
FTUS45 KBOI 290520
TAFMYL
TAF
KMYL 290520Z 2906/3006 16005KT P6SM -SHRA BKN050
     FM291800 18005KT P6SM BKN200=



000
FTUS45 KBOI 290520
TAFTWF
TAF
KTWF 290520Z 2906/3006 18008KT P6SM SCT150
     FM291800 28007KT P6SM SCT150
     FM300300 18010KT P6SM BKN250=



000
FTUS45 KBOI 290520
TAFBNO
TAF
KBNO 290520Z 2906/3006 VRB05KT P6SM BKN060
     FM291200 VRB05KT P6SM SCT150=



    US Dept of Commerce
    National Oceanic and Atmospheric Administration
    National Weather Service
    1325 East West Highway
    Silver Spring, MD 20910
    Page Author: NWS Internet Services Team
Disclaimer
Information Quality
Credits
Glossary
Privacy Policy
Freedom of Information Act (FOIA)
About Us
Career Opportunities